< Cyclone 200822 2008 Season Cyclone 200902 >
Cyclone 200823 (Durga)
General InformationTrack Information on Google MapsDetailed Wind InformationList of All Images || ResourceGoogle EarthGE AnimationAtom FeedGeoJSON
Detalied Best Track (Time Zone = UTC)
Year Month Day Hour Lat. Long. Pressure (hPa) Wind (kt) Class Image Chart
2008 4 20 00 -5.6 82.2 1004 0 0 Image --
2008 4 20 06 -5.6 82.6 1004 0 0 Image --
2008 4 20 12 -6.3 83.5 1002 20 2 Image --
2008 4 20 18 -6.4 83.9 1002 20 2 Image --
2008 4 21 00 -7.3 85.4 1000 25 2 Image --
2008 4 21 06 -8.0 85.7 1000 25 2 Image --
2008 4 21 12 -7.8 86.5 998 25 2 Image --
2008 4 21 18 -7.9 87.7 996 30 2 Image --
2008 4 22 00 -8.0 88.9 996 30 2 Image --
2008 4 22 06 -8.1 90.3 990 40 3 Image --
2008 4 22 12 -8.0 92.6 984 50 4 Image --
2008 4 22 18 -8.0 93.4 984 50 4 Image --
2008 4 23 00 -8.5 94.8 984 50 4 Image --
2008 4 23 06 -9.1 95.9 984 50 4 Image --
2008 4 23 12 -9.3 97.2 984 50 4 Image --
2008 4 23 18 -9.8 97.5 984 50 4 Image --
2008 4 24 00 -9.9 98.3 984 50 4 Image --
2008 4 24 06 -10.7 99.2 984 50 4 Image --
2008 4 24 12 -11.3 99.7 990 35 3 Image --
2008 4 24 18 -11.7 99.8 990 35 3 Image --
2008 4 25 00 -12.6 100.1 990 35 3 Image --
2008 4 25 06 -13.8 100.2 996 30 2 Image --
2008 4 25 12 -14.6 100.0 996 30 2 Image --
2008 4 25 18 -15.3 99.6 1000 25 2 Image --
2008 4 26 00 -16.3 99.6 1000 25 2 Image --
2008 4 26 06 -17.0 99.4 1000 20 2 Image --
< Cyclone 200822 2008 Season Cyclone 200902 >

Help